sensor_id;sensor_type;location;lat;lon;timestamp;pressure;altitude;pressure_sealevel;temperature;humidity
58092;BME280;43896;48.178;11.578;2023-03-18T00:01:37;95340.56;;;8.85;62.46
58092;BME280;43896;48.178;11.578;2023-03-18T00:04:02;95376.69;;;8.99;62.63
58092;BME280;43896;48.178;11.578;2023-03-18T00:06:28;95404.75;;;9.15;62.44
58092;BME280;43896;48.178;11.578;2023-03-18T00:08:54;95434.78;;;9.29;62.41
58092;BME280;43896;48.178;11.578;2023-03-18T00:11:22;95399.16;;;9.10;61.78
58092;BME280;43896;48.178;11.578;2023-03-18T00:13:47;95440.56;;;9.41;61.76
58092;BME280;43896;48.178;11.578;2023-03-18T00:16:13;95434.81;;;9.37;61.46
58092;BME280;43896;48.178;11.578;2023-03-18T00:18:39;95459.16;;;9.56;61.51
58092;BME280;43896;48.178;11.578;2023-03-18T00:21:06;95406.41;;;9.16;61.72
58092;BME280;43896;48.178;11.578;2023-03-18T00:23:32;95456.34;;;9.49;61.19
58092;BME280;43896;48.178;11.578;2023-03-18T00:25:59;95461.09;;;9.54;61.70
58092;BME280;43896;48.178;11.578;2023-03-18T00:28:26;95420.69;;;9.30;61.14
58092;BME280;43896;48.178;11.578;2023-03-18T00:30:53;95467.84;;;9.56;61.26
58092;BME280;43896;48.178;11.578;2023-03-18T00:33:19;95446.78;;;9.40;60.85
58092;BME280;43896;48.178;11.578;2023-03-18T00:35:45;95398.50;;;9.08;61.09
58092;BME280;43896;48.178;11.578;2023-03-18T00:38:11;95483.78;;;9.71;60.04
58092;BME280;43896;48.178;11.578;2023-03-18T00:40:46;95480.16;;;9.72;60.59
58092;BME280;43896;48.178;11.578;2023-03-18T00:43:22;95415.44;;;9.38;59.72
58092;BME280;43896;48.178;11.578;2023-03-18T00:45:53;95390.50;;;9.26;59.33
58092;BME280;43896;48.178;11.578;2023-03-18T00:48:19;95449.63;;;9.63;59.17
58092;BME280;43896;48.178;11.578;2023-03-18T00:50:44;95434.69;;;9.55;59.00
58092;BME280;43896;48.178;11.578;2023-03-18T00:53:11;95488.41;;;9.94;58.92
58092;BME280;43896;48.178;11.578;2023-03-18T00:55:37;95464.09;;;9.75;59.41
58092;BME280;43896;48.178;11.578;2023-03-18T00:58:03;95495.59;;;9.75;59.78
58092;BME280;43896;48.178;11.578;2023-03-18T01:00:28;95435.63;;;9.38;59.51
58092;BME280;43896;48.178;11.578;2023-03-18T01:02:54;95489.28;;;9.44;61.05
58092;BME280;43896;48.178;11.578;2023-03-18T01:05:20;95423.81;;;8.83;60.60
58092;BME280;43896;48.178;11.578;2023-03-18T01:07:46;95465.59;;;9.19;61.11
58092;BME280;43896;48.178;11.578;2023-03-18T01:10:12;95445.84;;;8.98;60.81
58092;BME280;43896;48.178;11.578;2023-03-18T01:12:39;95435.44;;;8.80;61.45
58092;BME280;43896;48.178;11.578;2023-03-18T01:15:07;95458.56;;;8.85;61.91
58092;BME280;43896;48.178;11.578;2023-03-18T01:17:34;95491.94;;;9.01;62.33
58092;BME280;43896;48.178;11.578;2023-03-18T01:20:00;95435.03;;;8.41;62.52
58092;BME280;43896;48.178;11.578;2023-03-18T01:22:26;95436.25;;;8.47;62.00
58092;BME280;43896;48.178;11.578;2023-03-18T01:24:52;95459.75;;;8.64;62.30
58092;BME280;43896;48.178;11.578;2023-03-18T01:27:17;95434.03;;;8.42;62.09
58092;BME280;43896;48.178;11.578;2023-03-18T01:29:42;95450.22;;;8.55;62.69
58092;BME280;43896;48.178;11.578;2023-03-18T01:32:08;95419.06;;;8.26;62.61
58092;BME280;43896;48.178;11.578;2023-03-18T01:34:34;95487.38;;;8.77;62.79
58092;BME280;43896;48.178;11.578;2023-03-18T01:36:59;95412.88;;;8.35;62.24
58092;BME280;43896;48.178;11.578;2023-03-18T01:39:25;95398.25;;;8.42;61.96
58092;BME280;43896;48.178;11.578;2023-03-18T01:41:51;95482.56;;;8.98;61.88
58092;BME280;43896;48.178;11.578;2023-03-18T01:44:22;95428.69;;;8.78;61.41
58092;BME280;43896;48.178;11.578;2023-03-18T01:46:49;95468.53;;;9.16;60.06
58092;BME280;43896;48.178;11.578;2023-03-18T01:49:17;95479.44;;;9.37;60.26
58092;BME280;43896;48.178;11.578;2023-03-18T01:52:20;95486.97;;;9.32;60.39
58092;BME280;43896;48.178;11.578;2023-03-18T01:55:02;95466.75;;;9.16;59.61
58092;BME280;43896;48.178;11.578;2023-03-18T01:57:29;95430.59;;;9.02;59.44
58092;BME280;43896;48.178;11.578;2023-03-18T01:59:56;95469.25;;;9.34;59.23
58092;BME280;43896;48.178;11.578;2023-03-18T02:02:22;95437.38;;;9.13;59.28
58092;BME280;43896;48.178;11.578;2023-03-18T02:04:54;95417.06;;;9.15;58.64
58092;BME280;43896;48.178;11.578;2023-03-18T02:07:25;95488.69;;;9.74;57.89
58092;BME280;43896;48.178;11.578;2023-03-18T02:09:53;95447.47;;;9.50;57.70
58092;BME280;43896;48.178;11.578;2023-03-18T02:12:26;95496.28;;;9.86;56.75
58092;BME280;43896;48.178;11.578;2023-03-18T02:14:53;95493.81;;;9.92;56.40
58092;BME280;43896;48.178;11.578;2023-03-18T02:17:22;95479.53;;;9.87;56.28
58092;BME280;43896;48.178;11.578;2023-03-18T02:22:43;95499.09;;;10.01;56.35
58092;BME280;43896;48.178;11.578;2023-03-18T02:25:50;95495.28;;;9.95;56.24
58092;BME280;43896;48.178;11.578;2023-03-18T02:28:23;95466.06;;;9.73;56.13
58092;BME280;43896;48.178;11.578;2023-03-18T02:30:53;95447.63;;;9.49;56.66
58092;BME280;43896;48.178;11.578;2023-03-18T02:33:22;95492.81;;;9.77;56.99
58092;BME280;43896;48.178;11.578;2023-03-18T02:35:55;95426.94;;;9.37;57.06
58092;BME280;43896;48.178;11.578;2023-03-18T02:38:21;95508.09;;;9.82;57.02
58092;BME280;43896;48.178;11.578;2023-03-18T02:40:47;95424.28;;;9.29;57.18
58092;BME280;43896;48.178;11.578;2023-03-18T02:43:18;95508.09;;;9.82;56.67
58092;BME280;43896;48.178;11.578;2023-03-18T02:48:24;95445.47;;;9.36;57.06
58092;BME280;43896;48.178;11.578;2023-03-18T02:50:52;95451.06;;;9.41;56.75
58092;BME280;43896;48.178;11.578;2023-03-18T02:53:18;95505.47;;;9.82;56.54
58092;BME280;43896;48.178;11.578;2023-03-18T02:55:43;95480.81;;;9.58;56.92
58092;BME280;43896;48.178;11.578;2023-03-18T02:58:09;95521.56;;;9.87;56.74
58092;BME280;43896;48.178;11.578;2023-03-18T03:00:36;95451.56;;;9.45;56.39
58092;BME280;43896;48.178;11.578;2023-03-18T03:03:01;95465.00;;;9.42;56.29
58092;BME280;43896;48.178;11.578;2023-03-18T03:05:28;95487.34;;;9.54;56.58
58092;BME280;43896;48.178;11.578;2023-03-18T03:07:53;95499.22;;;9.66;55.43
58092;BME280;43896;48.178;11.578;2023-03-18T03:10:18;95510.88;;;9.80;54.91
58092;BME280;43896;48.178;11.578;2023-03-18T03:12:44;95472.63;;;9.61;54.46
58092;BME280;43896;48.178;11.578;2023-03-18T03:15:10;95486.91;;;9.75;54.95
58092;BME280;43896;48.178;11.578;2023-03-18T03:17:35;95514.81;;;9.84;55.00
58092;BME280;43896;48.178;11.578;2023-03-18T03:20:01;95458.41;;;9.29;54.98
58092;BME280;43896;48.178;11.578;2023-03-18T03:22:30;95544.56;;;9.93;54.49
58092;BME280;43896;48.178;11.578;2023-03-18T03:24:55;95503.16;;;9.79;54.49
58092;BME280;43896;48.178;11.578;2023-03-18T03:27:21;95504.63;;;9.81;54.14
58092;BME280;43896;48.178;11.578;2023-03-18T03:29:46;95488.50;;;9.68;54.83
58092;BME280;43896;48.178;11.578;2023-03-18T03:32:12;95517.28;;;9.86;54.50
58092;BME280;43896;48.178;11.578;2023-03-18T03:34:37;95489.69;;;9.65;54.16
58092;BME280;43896;48.178;11.578;2023-03-18T03:37:03;95482.44;;;9.59;54.28
58092;BME280;43896;48.178;11.578;2023-03-18T03:39:28;95499.22;;;9.66;53.80
58092;BME280;43896;48.178;11.578;2023-03-18T03:41:54;95500.69;;;9.77;53.40
58092;BME280;43896;48.178;11.578;2023-03-18T03:44:19;95551.47;;;10.10;53.05
58092;BME280;43896;48.178;11.578;2023-03-18T03:46:45;95565.13;;;10.22;53.26
58092;BME280;43896;48.178;11.578;2023-03-18T03:49:10;95507.28;;;9.89;53.15
58092;BME280;43896;48.178;11.578;2023-03-18T03:51:36;95538.00;;;10.05;53.34
58092;BME280;43896;48.178;11.578;2023-03-18T03:54:02;95562.16;;;10.17;52.91
58092;BME280;43896;48.178;11.578;2023-03-18T03:56:27;95505.47;;;9.82;52.27
58092;BME280;43896;48.178;11.578;2023-03-18T03:58:53;95531.75;;;9.98;52.13
58092;BME280;43896;48.178;11.578;2023-03-18T04:01:18;95478.34;;;9.65;53.04
58092;BME280;43896;48.178;11.578;2023-03-18T04:03:44;95512.03;;;9.86;52.36
58092;BME280;43896;48.178;11.578;2023-03-18T04:06:09;95577.44;;;10.22;52.51
58092;BME280;43896;48.178;11.578;2023-03-18T04:08:35;95504.00;;;9.87;52.11
58092;BME280;43896;48.178;11.578;2023-03-18T04:11:00;95515.63;;;9.85;53.06
58092;BME280;43896;48.178;11.578;2023-03-18T04:13:27;95534.72;;;9.87;52.86
58092;BME280;43896;48.178;11.578;2023-03-18T04:15:53;95585.16;;;10.15;52.93
58092;BME280;43896;48.178;11.578;2023-03-18T04:18:18;95507.25;;;9.73;53.18
58092;BME280;43896;48.178;11.578;2023-03-18T04:20:44;95566.59;;;10.08;52.54
58092;BME280;43896;48.178;11.578;2023-03-18T04:23:10;95490.00;;;9.62;52.50
58092;BME280;43896;48.178;11.578;2023-03-18T04:25:35;95513.50;;;9.80;52.16
58092;BME280;43896;48.178;11.578;2023-03-18T04:28:01;95502.50;;;9.76;52.63
58092;BME280;43896;48.178;11.578;2023-03-18T04:30:27;95525.97;;;9.86;52.50
58092;BME280;43896;48.178;11.578;2023-03-18T04:32:52;95539.97;;;9.87;52.17
58092;BME280;43896;48.178;11.578;2023-03-18T04:35:19;95509.69;;;9.74;52.49
58092;BME280;43896;48.178;11.578;2023-03-18T04:37:46;95580.25;;;10.20;52.52
58092;BME280;43896;48.178;11.578;2023-03-18T04:40:11;95575.94;;;10.03;53.57
58092;BME280;43896;48.178;11.578;2023-03-18T04:42:37;95504.09;;;9.53;53.79
58092;BME280;43896;48.178;11.578;2023-03-18T04:45:04;95516.06;;;9.55;53.24
58092;BME280;43896;48.178;11.578;2023-03-18T04:47:30;95550.25;;;9.72;52.88
58092;BME280;43896;48.178;11.578;2023-03-18T04:49:57;95522.97;;;9.56;53.62
58092;BME280;43896;48.178;11.578;2023-03-18T04:52:23;95563.34;;;9.64;55.06
58092;BME280;43896;48.178;11.578;2023-03-18T04:54:49;95520.25;;;9.32;53.94
58092;BME280;43896;48.178;11.578;2023-03-18T04:57:14;95492.47;;;9.13;54.63
58092;BME280;43896;48.178;11.578;2023-03-18T04:59:41;95493.56;;;9.02;54.90
58092;BME280;43896;48.178;11.578;2023-03-18T05:02:06;95586.78;;;9.57;55.75
58092;BME280;43896;48.178;11.578;2023-03-18T05:04:32;95585.06;;;9.39;55.68
58092;BME280;43896;48.178;11.578;2023-03-18T05:06:58;95499.34;;;8.79;56.11
58092;BME280;43896;48.178;11.578;2023-03-18T05:09:23;95589.00;;;9.35;55.61
58092;BME280;43896;48.178;11.578;2023-03-18T05:11:49;95542.78;;;9.08;55.73
58092;BME280;43896;48.178;11.578;2023-03-18T05:14:15;95551.88;;;9.22;56.37
58092;BME280;43896;48.178;11.578;2023-03-18T05:16:40;95510.91;;;8.95;56.02
58092;BME280;43896;48.178;11.578;2023-03-18T05:19:06;95591.13;;;9.40;56.58
58092;BME280;43896;48.178;11.578;2023-03-18T05:21:34;95528.44;;;8.94;56.92
58092;BME280;43896;48.178;11.578;2023-03-18T05:24:00;95502.75;;;8.72;56.56
58092;BME280;43896;48.178;11.578;2023-03-18T05:26:25;95528.63;;;8.75;57.62
58092;BME280;43896;48.178;11.578;2023-03-18T05:28:51;95518.44;;;8.63;57.18
58092;BME280;43896;48.178;11.578;2023-03-18T05:31:18;95508.91;;;8.62;57.15
58092;BME280;43896;48.178;11.578;2023-03-18T05:33:43;95537.19;;;8.77;57.06
58092;BME280;43896;48.178;11.578;2023-03-18T05:36:09;95595.03;;;9.01;58.18
58092;BME280;43896;48.178;11.578;2023-03-18T05:38:34;95524.91;;;8.51;58.42
58092;BME280;43896;48.178;11.578;2023-03-18T05:40:59;95520.31;;;8.53;57.78
58092;BME280;43896;48.178;11.578;2023-03-18T05:43:25;95555.69;;;8.75;57.77
58092;BME280;43896;48.178;11.578;2023-03-18T05:45:51;95539.09;;;8.67;57.07
58092;BME280;43896;48.178;11.578;2023-03-18T05:48:16;95540.41;;;8.71;57.03
58092;BME280;43896;48.178;11.578;2023-03-18T05:50:42;95485.53;;;8.43;57.87
58092;BME280;43896;48.178;11.578;2023-03-18T05:53:11;95520.16;;;8.55;57.82
58092;BME280;43896;48.178;11.578;2023-03-18T05:55:38;95600.63;;;9.07;57.67
58092;BME280;43896;48.178;11.578;2023-03-18T05:58:05;95572.16;;;8.86;58.01
58092;BME280;43896;48.178;11.578;2023-03-18T06:00:31;95601.31;;;9.09;57.30
58092;BME280;43896;48.178;11.578;2023-03-18T06:02:57;95525.00;;;8.68;57.78
58092;BME280;43896;48.178;11.578;2023-03-18T06:05:24;95565.34;;;8.75;58.74
58092;BME280;43896;48.178;11.578;2023-03-18T06:07:51;95516.97;;;8.43;58.68
58092;BME280;43896;48.178;11.578;2023-03-18T06:10:18;95554.91;;;8.57;58.39
58092;BME280;43896;48.178;11.578;2023-03-18T06:12:44;95613.69;;;8.98;58.83
58092;BME280;43896;48.178;11.578;2023-03-18T06:15:11;95566.56;;;8.80;57.72
58092;BME280;43896;48.178;11.578;2023-03-18T06:17:38;95542.81;;;8.64;58.11
58092;BME280;43896;48.178;11.578;2023-03-18T06:20:05;95531.59;;;8.72;58.10
58092;BME280;43896;48.178;11.578;2023-03-18T06:22:33;95602.22;;;9.26;58.44
58092;BME280;43896;48.178;11.578;2023-03-18T06:24:58;95537.19;;;8.77;58.97
58092;BME280;43896;48.178;11.578;2023-03-18T06:27:23;95556.56;;;8.84;59.38
58092;BME280;43896;48.178;11.578;2023-03-18T06:29:49;95535.53;;;8.76;59.40
58092;BME280;43896;48.178;11.578;2023-03-18T06:32:15;95604.06;;;9.07;58.81
58092;BME280;43896;48.178;11.578;2023-03-18T06:34:40;95606.91;;;9.14;60.10
58092;BME280;43896;48.178;11.578;2023-03-18T06:37:06;95586.22;;;9.11;58.72
58092;BME280;43896;48.178;11.578;2023-03-18T06:39:32;95541.03;;;8.91;57.95
58092;BME280;43896;48.178;11.578;2023-03-18T06:41:59;95538.63;;;8.97;57.43
58092;BME280;43896;48.178;11.578;2023-03-18T06:44:24;95591.13;;;9.40;56.67
58092;BME280;43896;48.178;11.578;2023-03-18T06:46:49;95530.88;;;9.22;55.65
58092;BME280;43896;48.178;11.578;2023-03-18T06:49:16;95600.84;;;9.82;56.15
58092;BME280;43896;48.178;11.578;2023-03-18T06:51:42;95574.69;;;9.72;56.40
58092;BME280;43896;48.178;11.578;2023-03-18T06:54:08;95515.53;;;9.44;56.96
58092;BME280;43896;48.178;11.578;2023-03-18T06:56:35;95620.78;;;10.09;57.72
58092;BME280;43896;48.178;11.578;2023-03-18T06:59:06;95601.72;;;9.99;57.71
58092;BME280;43896;48.178;11.578;2023-03-18T07:01:32;95608.34;;;10.20;57.10
58092;BME280;43896;48.178;11.578;2023-03-18T07:03:58;95619.88;;;10.35;57.40
58092;BME280;43896;48.178;11.578;2023-03-18T07:06:25;95601.28;;;10.28;56.61
58092;BME280;43896;48.178;11.578;2023-03-18T07:08:51;95626.47;;;10.47;55.77
58092;BME280;43896;48.178;11.578;2023-03-18T07:11:17;95550.19;;;10.14;53.58
58092;BME280;43896;48.178;11.578;2023-03-18T07:13:42;95614.00;;;10.66;55.12
58092;BME280;43896;48.178;11.578;2023-03-18T07:16:08;95591.31;;;10.65;53.65
58092;BME280;43896;48.178;11.578;2023-03-18T07:18:35;95606.09;;;10.91;53.51
58092;BME280;43896;48.178;11.578;2023-03-18T07:21:02;95600.84;;;10.91;54.48
58092;BME280;43896;48.178;11.578;2023-03-18T07:23:27;95594.09;;;10.96;53.61
58092;BME280;43896;48.178;11.578;2023-03-18T07:25:52;95601.66;;;11.07;51.79
58092;BME280;43896;48.178;11.578;2023-03-18T07:28:18;95626.44;;;11.30;51.86
58092;BME280;43896;48.178;11.578;2023-03-18T07:30:44;95565.94;;;11.05;50.76
58092;BME280;43896;48.178;11.578;2023-03-18T07:33:09;95636.59;;;11.57;50.07
58092;BME280;43896;48.178;11.578;2023-03-18T07:35:35;95616.63;;;11.63;49.17
58092;BME280;43896;48.178;11.578;2023-03-18T07:38:04;95624.34;;;11.73;48.60
58092;BME280;43896;48.178;11.578;2023-03-18T07:40:30;95625.78;;;11.83;48.80
58092;BME280;43896;48.178;11.578;2023-03-18T07:42:55;95627.41;;;11.93;49.14
58092;BME280;43896;48.178;11.578;2023-03-18T07:45:20;95616.06;;;11.92;48.53
58092;BME280;43896;48.178;11.578;2023-03-18T07:47:46;95621.44;;;12.07;48.01
58092;BME280;43896;48.178;11.578;2023-03-18T07:50:11;95626.47;;;12.17;47.55
58092;BME280;43896;48.178;11.578;2023-03-18T07:52:37;95631.69;;;12.25;47.14
58092;BME280;43896;48.178;11.578;2023-03-18T07:55:03;95624.44;;;12.27;46.81
58092;BME280;43896;48.178;11.578;2023-03-18T07:57:29;95622.94;;;12.33;47.00
58092;BME280;43896;48.178;11.578;2023-03-18T07:59:54;95622.41;;;12.37;46.51
58092;BME280;43896;48.178;11.578;2023-03-18T08:02:20;95630.38;;;12.52;46.65
58092;BME280;43896;48.178;11.578;2023-03-18T08:04:45;95628.97;;;12.65;46.71
58092;BME280;43896;48.178;11.578;2023-03-18T08:07:11;95624.84;;;12.70;45.65
58092;BME280;43896;48.178;11.578;2023-03-18T08:09:37;95647.75;;;12.93;45.44
58092;BME280;43896;48.178;11.578;2023-03-18T08:12:02;95634.91;;;12.90;45.42
58092;BME280;43896;48.178;11.578;2023-03-18T08:14:28;95630.44;;;12.90;44.65
58092;BME280;43896;48.178;11.578;2023-03-18T08:16:53;95626.81;;;12.91;44.29
58092;BME280;43896;48.178;11.578;2023-03-18T08:19:18;95621.19;;;12.94;44.52
58092;BME280;43896;48.178;11.578;2023-03-18T08:21:43;95629.94;;;13.10;44.33
58092;BME280;43896;48.178;11.578;2023-03-18T08:24:09;95587.03;;;12.93;43.61
58092;BME280;43896;48.178;11.578;2023-03-18T08:26:35;95622.31;;;13.30;43.65
58092;BME280;43896;48.178;11.578;2023-03-18T08:29:01;95571.84;;;12.95;43.75
58092;BME280;43896;48.178;11.578;2023-03-18T08:31:26;95616.31;;;13.21;42.98
58092;BME280;43896;48.178;11.578;2023-03-18T08:33:51;95635.41;;;13.46;43.50
58092;BME280;43896;48.178;11.578;2023-03-18T08:36:21;95646.16;;;13.60;42.36
58092;BME280;43896;48.178;11.578;2023-03-18T08:38:46;95619.94;;;13.58;42.06
58092;BME280;43896;48.178;11.578;2023-03-18T08:41:11;95597.69;;;13.53;41.69
58092;BME280;43896;48.178;11.578;2023-03-18T08:43:37;95599.13;;;13.70;40.98
58092;BME280;43896;48.178;11.578;2023-03-18T08:46:02;95612.59;;;13.90;41.19
58092;BME280;43896;48.178;11.578;2023-03-18T08:48:28;95607.31;;;14.05;40.20
58092;BME280;43896;48.178;11.578;2023-03-18T08:50:54;95628.94;;;14.30;40.03
58092;BME280;43896;48.178;11.578;2023-03-18T08:53:20;95617.81;;;14.35;40.31
58092;BME280;43896;48.178;11.578;2023-03-18T08:55:46;95620.72;;;14.40;39.65
58092;BME280;43896;48.178;11.578;2023-03-18T08:58:11;95628.63;;;14.55;39.34
58092;BME280;43896;48.178;11.578;2023-03-18T09:00:38;95621.84;;;14.67;39.02
58092;BME280;43896;48.178;11.578;2023-03-18T09:03:05;95627.94;;;14.89;39.80
58092;BME280;43896;48.178;11.578;2023-03-18T09:05:31;95620.63;;;14.91;38.62
58092;BME280;43896;48.178;11.578;2023-03-18T09:07:57;95602.66;;;14.87;39.22
58092;BME280;43896;48.178;11.578;2023-03-18T09:10:23;95606.22;;;15.00;38.08
58092;BME280;43896;48.178;11.578;2023-03-18T09:12:48;95617.44;;;15.24;38.69
58092;BME280;43896;48.178;11.578;2023-03-18T09:15:15;95615.88;;;15.36;38.27
58092;BME280;43896;48.178;11.578;2023-03-18T09:17:41;95612.66;;;15.41;37.54
58092;BME280;43896;48.178;11.578;2023-03-18T09:20:09;95619.47;;;15.57;37.57
58092;BME280;43896;48.178;11.578;2023-03-18T09:22:36;95603.66;;;15.70;37.51
58092;BME280;43896;48.178;11.578;2023-03-18T09:25:01;95626.50;;;15.71;36.67
58092;BME280;43896;48.178;11.578;2023-03-18T09:27:27;95618.63;;;15.85;37.17
58092;BME280;43896;48.178;11.578;2023-03-18T09:29:52;95627.28;;;16.00;36.56
58092;BME280;43896;48.178;11.578;2023-03-18T09:32:17;95621.28;;;15.85;36.56
58092;BME280;43896;48.178;11.578;2023-03-18T09:34:43;95614.59;;;15.89;36.57
58092;BME280;43896;48.178;11.578;2023-03-18T09:37:11;95622.63;;;15.74;36.61
58092;BME280;43896;48.178;11.578;2023-03-18T09:39:38;95622.25;;;16.19;36.52
58092;BME280;43896;48.178;11.578;2023-03-18T09:44:33;95609.44;;;16.29;35.70
58092;BME280;43896;48.178;11.578;2023-03-18T09:49:42;95612.72;;;16.31;36.29
58092;BME280;43896;48.178;11.578;2023-03-18T09:54:46;95617.38;;;16.91;35.65
58092;BME280;43896;48.178;11.578;2023-03-18T09:57:23;95619.00;;;17.18;34.67
58092;BME280;43896;48.178;11.578;2023-03-18T10:02:45;95622.81;;;17.89;33.78
58092;BME280;43896;48.178;11.578;2023-03-18T10:05:16;95622.16;;;18.07;32.42
58092;BME280;43896;48.178;11.578;2023-03-18T10:07:42;95601.94;;;18.45;32.60
58092;BME280;43896;48.178;11.578;2023-03-18T10:10:36;95608.13;;;19.02;32.77
58092;BME280;43896;48.178;11.578;2023-03-18T10:13:06;95603.13;;;19.38;31.21
58092;BME280;43896;48.178;11.578;2023-03-18T10:15:40;95625.38;;;19.94;31.42
58092;BME280;43896;48.178;11.578;2023-03-18T10:18:30;95620.44;;;19.72;31.31
58092;BME280;43896;48.178;11.578;2023-03-18T10:26:56;95627.81;;;19.95;28.22
58092;BME280;43896;48.178;11.578;2023-03-18T10:29:33;95614.03;;;19.80;28.15
58092;BME280;43896;48.178;11.578;2023-03-18T10:32:22;95625.88;;;20.39;27.37
58092;BME280;43896;48.178;11.578;2023-03-18T10:40:45;95613.75;;;20.37;33.68
58092;BME280;43896;48.178;11.578;2023-03-18T10:43:20;95588.75;;;20.50;32.78
58092;BME280;43896;48.178;11.578;2023-03-18T10:46:04;95587.09;;;20.49;30.95
58092;BME280;43896;48.178;11.578;2023-03-18T10:48:34;95614.75;;;20.42;32.06
58092;BME280;43896;48.178;11.578;2023-03-18T10:54:16;95605.31;;;20.21;31.98
58092;BME280;43896;48.178;11.578;2023-03-18T10:56:43;95581.63;;;21.04;29.41
58092;BME280;43896;48.178;11.578;2023-03-18T10:59:20;95597.13;;;21.49;29.83
58092;BME280;43896;48.178;11.578;2023-03-18T11:01:51;95593.25;;;21.45;27.87
58092;BME280;43896;48.178;11.578;2023-03-18T11:04:18;95583.03;;;21.66;28.32
58092;BME280;43896;48.178;11.578;2023-03-18T11:06:59;95578.88;;;22.10;27.38
58092;BME280;43896;48.178;11.578;2023-03-18T11:09:36;95578.53;;;22.59;25.22
58092;BME280;43896;48.178;11.578;2023-03-18T11:12:14;95556.44;;;22.00;27.45
58092;BME280;43896;48.178;11.578;2023-03-18T11:14:46;95570.34;;;22.66;26.15
58092;BME280;43896;48.178;11.578;2023-03-18T11:17:26;95567.06;;;23.10;24.68
58092;BME280;43896;48.178;11.578;2023-03-18T11:22:26;95568.41;;;23.46;24.26
58092;BME280;43896;48.178;11.578;2023-03-18T11:25:14;95553.03;;;22.28;25.27
58092;BME280;43896;48.178;11.578;2023-03-18T11:27:46;95551.03;;;22.35;25.84
58092;BME280;43896;48.178;11.578;2023-03-18T11:30:16;95552.97;;;22.40;27.11
58092;BME280;43896;48.178;11.578;2023-03-18T11:32:55;95556.34;;;23.10;25.50
58092;BME280;43896;48.178;11.578;2023-03-18T11:35:54;95551.84;;;23.49;25.96
58092;BME280;43896;48.178;11.578;2023-03-18T11:38:29;95527.63;;;23.83;23.78
58092;BME280;43896;48.178;11.578;2023-03-18T11:41:15;95539.25;;;23.72;25.44
58092;BME280;43896;48.178;11.578;2023-03-18T11:44:01;95537.25;;;22.03;27.21
58092;BME280;43896;48.178;11.578;2023-03-18T11:46:29;95537.56;;;21.30;30.81
58092;BME280;43896;48.178;11.578;2023-03-18T11:48:56;95514.22;;;22.31;25.37
58092;BME280;43896;48.178;11.578;2023-03-18T11:51:45;95527.25;;;23.57;25.04
58092;BME280;43896;48.178;11.578;2023-03-18T11:54:24;95524.31;;;23.20;26.45
58092;BME280;43896;48.178;11.578;2023-03-18T11:56:58;95522.50;;;23.26;26.12
58092;BME280;43896;48.178;11.578;2023-03-18T12:02:25;95515.44;;;22.85;28.47
58092;BME280;43896;48.178;11.578;2023-03-18T12:10:23;95509.91;;;22.75;27.94
58092;BME280;43896;48.178;11.578;2023-03-18T12:21:40;95510.78;;;23.32;27.03
58092;BME280;43896;48.178;11.578;2023-03-18T12:32:25;95473.69;;;22.73;25.01
58092;BME280;43896;48.178;11.578;2023-03-18T12:40:39;95500.94;;;23.03;26.33
58092;BME280;43896;48.178;11.578;2023-03-18T12:43:54;95477.09;;;23.41;25.28
58092;BME280;43896;48.178;11.578;2023-03-18T12:46:32;95493.66;;;23.77;23.70
58092;BME280;43896;48.178;11.578;2023-03-18T12:49:08;95491.81;;;24.00;24.80
58092;BME280;43896;48.178;11.578;2023-03-18T12:52:04;95499.34;;;23.58;25.18
58092;BME280;43896;48.178;11.578;2023-03-18T12:54:43;95488.06;;;23.39;25.47
58092;BME280;43896;48.178;11.578;2023-03-18T12:57:14;95487.13;;;23.29;25.55
58092;BME280;43896;48.178;11.578;2023-03-18T12:59:47;95493.69;;;21.67;27.35
58092;BME280;43896;48.178;11.578;2023-03-18T13:05:25;95483.31;;;22.57;28.55
58092;BME280;43896;48.178;11.578;2023-03-18T13:08:17;95488.44;;;22.58;28.81
58092;BME280;43896;48.178;11.578;2023-03-18T13:10:49;95484.63;;;21.97;27.79
58092;BME280;43896;48.178;11.578;2023-03-18T13:13:17;95501.22;;;22.10;29.59
58092;BME280;43896;48.178;11.578;2023-03-18T13:15:46;95485.16;;;22.39;28.05
58092;BME280;43896;48.178;11.578;2023-03-18T13:18:23;95501.06;;;22.29;27.61
58092;BME280;43896;48.178;11.578;2023-03-18T13:20:52;95491.84;;;22.25;27.33
58092;BME280;43896;48.178;11.578;2023-03-18T13:23:44;95493.59;;;22.19;27.02
58092;BME280;43896;48.178;11.578;2023-03-18T13:26:28;95491.66;;;22.15;28.08
58092;BME280;43896;48.178;11.578;2023-03-18T13:34:44;95487.31;;;20.85;29.79
58092;BME280;43896;48.178;11.578;2023-03-18T13:43:14;95473.84;;;21.51;27.97
58092;BME280;43896;48.178;11.578;2023-03-18T13:45:49;95474.03;;;21.38;28.36
58092;BME280;43896;48.178;11.578;2023-03-18T13:48:26;95469.63;;;21.96;27.23
58092;BME280;43896;48.178;11.578;2023-03-18T13:50:53;95474.97;;;21.55;27.62
58092;BME280;43896;48.178;11.578;2023-03-18T13:53:37;95468.69;;;21.61;27.95
58092;BME280;43896;48.178;11.578;2023-03-18T13:56:06;95444.72;;;21.43;26.90
58092;BME280;43896;48.178;11.578;2023-03-18T13:58:50;95454.75;;;21.35;27.43
58092;BME280;43896;48.178;11.578;2023-03-18T14:01:24;95460.69;;;21.49;26.25
58092;BME280;43896;48.178;11.578;2023-03-18T14:03:58;95450.94;;;20.96;27.26
58092;BME280;43896;48.178;11.578;2023-03-18T14:11:52;95442.13;;;20.30;28.40
58092;BME280;43896;48.178;11.578;2023-03-18T14:14:40;95452.22;;;21.05;27.34
58092;BME280;43896;48.178;11.578;2023-03-18T14:17:14;95438.28;;;20.91;27.19
58092;BME280;43896;48.178;11.578;2023-03-18T14:19:41;95435.38;;;21.05;26.81
58092;BME280;43896;48.178;11.578;2023-03-18T14:22:33;95441.75;;;20.92;26.49
58092;BME280;43896;48.178;11.578;2023-03-18T14:33:28;95442.03;;;20.36;27.59
58092;BME280;43896;48.178;11.578;2023-03-18T14:35:57;95434.97;;;20.54;27.53
58092;BME280;43896;48.178;11.578;2023-03-18T14:38:24;95427.81;;;20.66;27.11